KHFF/HFF METAR and TAF weather

Enter ICAO airport designator
Station Type Date Time Source
KHFF METAR 2020/03/29 14:56 UTC NOAA

KHFF 291456Z AUTO 27010KT 10SM CLR 25/19 A3000 RMK AO2 SLP171 50003


Station Type Date Time Source
KHFF Decoded METAR 2020/03/29 14:56 UTC NOAA

Mackall U. S. Army Airfield, NC, United States (KHFF) 35-02N 079-30W
Mar 29, 2020 - 10:56 AM EDT / 2020.03.29 1456 UTC
Wind: from the W (270 degrees) at 12 MPH (10 KT):0
Visibility: 10 mile(s):0
Sky conditions: clear
Temperature: 77 F (25 C)
Dew Point: 66 F (19 C)
Relative Humidity: 69%
Pressure (altimeter): 30 in. Hg (1015 hPa)
Pressure tendency: 0.01 inches (0.3 hPa) higher than three hours ago
ob: KHFF 291456Z AUTO 27010KT 10SM CLR 25/19 A3000 RMK AO2 SLP171 50003
cycle: 15

Station Type Date Time Source
KHFF TAF UTC NOAA

Error!

Example: see airport list